createdAt,value
2022-11-03T00:01:34.384Z,62.62
2022-11-03T00:04:02.286Z,63.42
2022-11-03T00:06:30.178Z,64.17
2022-11-03T00:08:59.421Z,63.99
2022-11-03T00:11:27.702Z,63.79
2022-11-03T00:13:58.073Z,64.07
2022-11-03T00:16:25.963Z,63.84
2022-11-03T00:18:54.185Z,64.25
2022-11-03T00:21:22.577Z,64.44
2022-11-03T00:23:51.880Z,64.05
2022-11-03T00:26:21.903Z,64.23
2022-11-03T00:28:51.762Z,64.42
2022-11-03T00:31:22.592Z,64.96
2022-11-03T00:33:50.670Z,65.30
2022-11-03T00:36:20.285Z,65.72
2022-11-03T00:38:48.699Z,66.17
2022-11-03T00:41:17.452Z,65.66
2022-11-03T00:43:45.394Z,65.42
2022-11-03T00:46:13.320Z,65.46
2022-11-03T00:48:42.955Z,65.69
2022-11-03T00:51:13.010Z,66.40
2022-11-03T00:53:42.509Z,66.68
2022-11-03T00:56:14.115Z,66.27
2022-11-03T00:58:42.225Z,65.87
2022-11-03T01:01:12.431Z,66.41
2022-11-03T01:04:04.791Z,66.30
2022-11-03T01:06:50.810Z,66.42
2022-11-03T01:09:19.987Z,66.43
2022-11-03T01:12:00.721Z,66.05
2022-11-03T01:14:30.903Z,66.69
2022-11-03T01:16:58.763Z,66.63
2022-11-03T01:19:28.124Z,66.27
2022-11-03T01:21:56.431Z,67.38
2022-11-03T01:24:24.349Z,67.18
2022-11-03T01:26:52.286Z,67.30
2022-11-03T01:29:20.151Z,67.22
2022-11-03T01:31:48.977Z,67.64
2022-11-03T01:34:18.353Z,67.69
2022-11-03T01:36:48.419Z,67.20
2022-11-03T01:39:19.360Z,67.96
2022-11-03T01:41:49.329Z,68.09
2022-11-03T01:44:32.687Z,67.36
2022-11-03T01:47:10.149Z,67.99
2022-11-03T01:49:43.397Z,68.18
2022-11-03T01:52:17.662Z,68.42
2022-11-03T01:54:49.439Z,68.18
2022-11-03T01:57:23.838Z,68.46
2022-11-03T01:59:52.446Z,68.36
2022-11-03T02:02:25.536Z,67.95
2022-11-03T02:04:53.665Z,67.75
2022-11-03T02:07:29.227Z,68.08
2022-11-03T02:09:57.084Z,68.98
2022-11-03T02:12:25.183Z,68.59
2022-11-03T02:14:56.315Z,69.28
2022-11-03T02:17:26.882Z,69.22
2022-11-03T02:19:59.496Z,69.44
2022-11-03T02:22:57.145Z,68.77
2022-11-03T02:25:45.466Z,69.00
2022-11-03T02:28:16.326Z,68.58
2022-11-03T02:30:48.224Z,68.52
2022-11-03T02:33:26.910Z,68.63
2022-11-03T02:36:00.598Z,69.04
2022-11-03T02:38:32.167Z,68.72
2022-11-03T02:41:07.465Z,68.95
2022-11-03T02:43:35.919Z,69.21
2022-11-03T02:46:06.882Z,69.92
2022-11-03T02:48:35.168Z,69.89
2022-11-03T02:51:05.154Z,69.43
2022-11-03T02:53:40.047Z,69.63
2022-11-03T02:56:14.384Z,69.42
2022-11-03T02:58:50.710Z,69.05
2022-11-03T03:01:23.718Z,68.93
2022-11-03T03:03:55.373Z,69.05
2022-11-03T03:06:27.382Z,68.51
2022-11-03T03:09:00.549Z,68.40
2022-11-03T03:11:39.631Z,68.87
2022-11-03T03:14:11.337Z,69.05
2022-11-03T03:16:48.370Z,69.24
2022-11-03T03:19:34.355Z,68.45
2022-11-03T03:22:11.851Z,68.78
2022-11-03T03:24:50.991Z,69.39
2022-11-03T03:27:24.789Z,69.36
2022-11-03T03:29:57.563Z,69.35
2022-11-03T03:32:28.703Z,68.37
2022-11-03T03:34:57.833Z,69.26
2022-11-03T03:37:29.109Z,68.72
2022-11-03T03:40:01.889Z,69.67
2022-11-03T03:42:33.114Z,69.27
2022-11-03T03:45:01.970Z,68.89
2022-11-03T03:47:32.307Z,68.90
2022-11-03T03:50:00.518Z,68.73
2022-11-03T03:52:28.936Z,69.21
2022-11-03T03:54:57.694Z,69.67
2022-11-03T03:57:27.209Z,69.17
2022-11-03T03:59:57.178Z,70.28
2022-11-03T04:02:25.168Z,68.35
2022-11-03T04:04:53.050Z,68.93
2022-11-03T04:07:42.580Z,70.00
2022-11-03T04:10:12.123Z,68.94
2022-11-03T04:12:59.424Z,69.08
2022-11-03T04:15:46.487Z,69.24
2022-11-03T04:18:31.816Z,69.96
2022-11-03T04:21:17.310Z,69.87
2022-11-03T04:23:45.419Z,69.45
2022-11-03T04:26:15.465Z,69.36
2022-11-03T04:28:43.766Z,69.96
2022-11-03T04:31:14.195Z,70.31
2022-11-03T04:33:42.657Z,70.08
2022-11-03T04:36:14.593Z,70.22
2022-11-03T04:38:44.844Z,70.29
2022-11-03T04:41:17.381Z,70.81
2022-11-03T04:43:46.590Z,69.71
2022-11-03T04:46:18.081Z,70.13
2022-11-03T04:48:47.502Z,69.80
2022-11-03T04:51:18.486Z,70.86
2022-11-03T04:53:50.819Z,70.89
2022-11-03T04:56:23.191Z,71.17
2022-11-03T04:58:51.454Z,70.97
2022-11-03T05:01:24.534Z,71.61
2022-11-03T05:03:54.740Z,72.14
2022-11-03T05:06:24.288Z,71.16
2022-11-03T05:08:56.119Z,71.15
2022-11-03T05:11:30.748Z,71.07
2022-11-03T05:14:01.728Z,70.06
2022-11-03T05:16:32.737Z,69.37
2022-11-03T05:19:01.103Z,70.06
2022-11-03T05:21:29.442Z,70.46
2022-11-03T05:24:02.680Z,70.92
2022-11-03T05:26:32.163Z,70.92
2022-11-03T05:29:03.247Z,70.81
2022-11-03T05:31:36.542Z,70.74
2022-11-03T05:34:07.533Z,70.80
2022-11-03T05:36:35.385Z,70.88
2022-11-03T05:39:27.708Z,70.26
2022-11-03T05:41:56.251Z,71.18
2022-11-03T05:44:30.144Z,71.47
2022-11-03T05:47:03.145Z,71.01
2022-11-03T05:49:33.738Z,71.34
2022-11-03T05:52:01.764Z,71.32
2022-11-03T05:54:35.191Z,71.50
2022-11-03T05:57:03.062Z,71.55
2022-11-03T05:59:30.918Z,71.39
2022-11-03T06:02:01.828Z,70.60
2022-11-03T06:04:33.805Z,71.85
2022-11-03T06:07:03.347Z,71.70
2022-11-03T06:09:34.489Z,71.45
2022-11-03T06:12:06.029Z,72.01
2022-11-03T06:14:34.993Z,71.03
2022-11-03T06:17:07.300Z,71.99
2022-11-03T06:19:39.187Z,72.14
2022-11-03T06:22:15.283Z,71.42
2022-11-03T06:24:43.663Z,71.33
2022-11-03T06:27:15.019Z,71.29
2022-11-03T06:29:45.345Z,70.65
2022-11-03T06:32:14.742Z,71.47
2022-11-03T06:34:47.090Z,71.40
2022-11-03T06:37:24.558Z,71.83
2022-11-03T06:39:56.459Z,71.47
2022-11-03T06:42:27.921Z,71.41
2022-11-03T06:44:58.712Z,72.09
2022-11-03T06:47:29.339Z,72.48
2022-11-03T06:49:59.474Z,72.15
2022-11-03T06:52:30.992Z,72.05
2022-11-03T06:55:22.669Z,71.42
2022-11-03T06:57:54.325Z,72.13
2022-11-03T07:00:34.091Z,72.02
2022-11-03T07:03:10.479Z,71.80
2022-11-03T07:05:39.833Z,71.36
2022-11-03T07:08:18.538Z,71.32
2022-11-03T07:10:46.414Z,71.55
2022-11-03T07:13:19.419Z,70.57
2022-11-03T07:15:47.527Z,70.26
2022-11-03T07:18:22.217Z,70.22
2022-11-03T07:20:50.191Z,70.49
2022-11-03T07:23:21.028Z,71.18
2022-11-03T07:25:54.650Z,71.43
2022-11-03T07:28:25.562Z,71.33
2022-11-03T07:30:53.808Z,70.90
2022-11-03T07:33:27.465Z,69.67
2022-11-03T07:36:14.969Z,69.77
2022-11-03T07:38:44.658Z,70.01
2022-11-03T07:41:19.388Z,69.72
2022-11-03T07:43:54.276Z,69.08
2022-11-03T07:46:23.957Z,69.46
2022-11-03T07:48:55.386Z,68.50
2022-11-03T07:51:26.307Z,67.93
2022-11-03T07:53:57.079Z,67.49
2022-11-03T07:56:27.235Z,67.12
2022-11-03T07:59:00.373Z,66.53
2022-11-03T08:01:30.940Z,67.09
2022-11-03T08:04:05.296Z,66.69
2022-11-03T08:06:33.245Z,66.40
2022-11-03T08:09:01.270Z,67.25
2022-11-03T08:11:29.885Z,67.83
2022-11-03T08:13:58.437Z,66.84
2022-11-03T08:16:26.535Z,67.22
2022-11-03T08:18:54.442Z,66.14
2022-11-03T08:21:24.232Z,66.93
2022-11-03T08:23:52.405Z,66.34
2022-11-03T08:26:20.693Z,66.93
2022-11-03T08:28:48.816Z,66.50
2022-11-03T08:31:16.881Z,66.05
2022-11-03T08:33:44.706Z,66.43
2022-11-03T08:36:13.804Z,65.56
2022-11-03T08:38:43.061Z,66.31
2022-11-03T08:41:10.934Z,65.62
2022-11-03T08:43:38.974Z,65.80
2022-11-03T08:46:15.776Z,65.37
2022-11-03T08:48:45.625Z,64.39
2022-11-03T08:51:14.552Z,63.48
2022-11-03T08:53:44.231Z,63.07
2022-11-03T08:56:13.751Z,62.99
2022-11-03T08:58:44.065Z,63.50
2022-11-03T09:01:11.996Z,62.99
2022-11-03T09:03:40.269Z,63.23
2022-11-03T09:06:09.018Z,61.23
2022-11-03T09:11:26.203Z,60.13
2022-11-03T09:13:54.019Z,60.83
2022-11-03T09:16:21.842Z,60.03
2022-11-03T09:18:49.713Z,58.52
2022-11-03T09:21:17.595Z,59.29
2022-11-03T09:23:45.416Z,57.94
2022-11-03T09:26:13.318Z,58.08
2022-11-03T09:28:42.525Z,57.47
2022-11-03T09:31:10.362Z,56.96
2022-11-03T09:33:38.264Z,55.98
2022-11-03T09:36:19.329Z,57.34
2022-11-03T09:38:47.216Z,58.22
2022-11-03T09:41:26.286Z,56.66
2022-11-03T09:43:59.200Z,56.78
2022-11-03T09:46:29.590Z,56.02
2022-11-03T09:48:57.779Z,55.12
2022-11-03T09:51:28.843Z,53.95
2022-11-03T09:53:58.741Z,52.87
2022-11-03T09:56:27.741Z,53.28
2022-11-03T09:58:56.891Z,53.03
2022-11-03T10:01:24.983Z,53.13
2022-11-03T10:03:53.627Z,52.58
2022-11-03T10:06:21.602Z,52.54
2022-11-03T10:08:50.448Z,50.57
2022-11-03T10:11:18.727Z,51.04
2022-11-03T10:13:49.098Z,51.95
2022-11-03T10:16:21.623Z,52.68
2022-11-03T10:18:50.330Z,52.49
2022-11-03T10:21:20.399Z,52.35
2022-11-03T10:23:50.259Z,52.61
2022-11-03T10:26:19.689Z,51.64
2022-11-03T10:29:01.717Z,51.19
2022-11-03T10:31:37.721Z,52.21
2022-11-03T10:34:06.539Z,52.09
2022-11-03T10:36:36.216Z,51.90
2022-11-03T10:39:26.688Z,52.05
2022-11-03T10:41:59.386Z,51.88
2022-11-03T10:44:28.982Z,52.03
2022-11-03T10:46:59.651Z,51.11
2022-11-03T10:49:29.333Z,51.23
2022-11-03T10:52:07.719Z,50.71
2022-11-03T10:54:37.889Z,50.87
2022-11-03T10:57:06.220Z,50.60
2022-11-03T10:59:37.477Z,50.74
2022-11-03T11:02:18.436Z,50.87
2022-11-03T11:04:48.136Z,50.96
2022-11-03T11:07:26.394Z,51.47
2022-11-03T11:09:54.846Z,51.43
2022-11-03T11:12:24.451Z,52.22
2022-11-03T11:14:54.483Z,51.81
2022-11-03T11:17:44.066Z,51.44
2022-11-03T11:20:30.310Z,52.19
2022-11-03T11:23:48.214Z,53.52
2022-11-03T11:26:31.983Z,53.68
2022-11-03T11:29:42.896Z,54.81
2022-11-03T11:32:50.212Z,54.98
2022-11-03T11:35:35.352Z,56.28
2022-11-03T11:38:36.301Z,54.82
2022-11-03T11:41:04.142Z,54.92
2022-11-03T11:43:32.473Z,55.16
2022-11-03T11:46:33.937Z,55.29
2022-11-03T11:49:17.407Z,55.44
2022-11-03T11:51:47.607Z,54.88
2022-11-03T11:54:20.818Z,55.72
2022-11-03T11:56:50.738Z,55.01
2022-11-03T11:59:25.204Z,54.95
2022-11-03T12:01:56.379Z,54.03
2022-11-03T12:04:27.692Z,54.52
2022-11-03T12:06:57.634Z,55.37
2022-11-03T12:09:28.201Z,55.22
2022-11-03T12:12:00.493Z,54.70
2022-11-03T12:14:35.340Z,55.42
2022-11-03T12:17:35.599Z,54.49
2022-11-03T12:20:36.853Z,53.57
2022-11-03T12:23:06.034Z,54.03
2022-11-03T12:25:37.071Z,54.17
2022-11-03T12:28:05.504Z,53.98
2022-11-03T12:30:39.501Z,54.94
2022-11-03T12:33:08.172Z,54.42
2022-11-03T12:35:36.383Z,54.35
2022-11-03T12:38:04.228Z,54.40
2022-11-03T12:40:33.537Z,53.89
2022-11-03T12:43:01.353Z,54.22
2022-11-03T12:45:29.186Z,53.58
2022-11-03T12:47:56.998Z,53.75
2022-11-03T12:50:24.809Z,54.06
2022-11-03T12:52:52.631Z,53.84
2022-11-03T12:55:20.508Z,54.18
2022-11-03T12:57:49.750Z,54.50
2022-11-03T13:00:18.754Z,53.98
2022-11-03T13:02:47.038Z,54.46
2022-11-03T13:05:15.434Z,54.76
2022-11-03T13:07:43.473Z,54.41
2022-11-03T13:10:11.799Z,53.71
2022-11-03T13:12:41.583Z,53.72
2022-11-03T13:15:13.540Z,54.58
2022-11-03T13:18:07.195Z,54.57
2022-11-03T13:20:29.441Z,54.47
2022-11-03T13:22:57.257Z,54.48
2022-11-03T13:25:25.363Z,54.16
2022-11-03T13:27:54.754Z,54.67
2022-11-03T13:30:24.899Z,55.60
2022-11-03T13:32:53.063Z,54.39
2022-11-03T13:35:21.212Z,55.56
2022-11-03T13:37:49.819Z,55.09
2022-11-03T13:43:06.016Z,54.66
2022-11-03T13:45:35.525Z,55.06
2022-11-03T13:49:07.416Z,54.87
2022-11-03T13:50:53.112Z,54.93
2022-11-03T13:56:13.210Z,54.94
2022-11-03T14:01:32.246Z,55.23
2022-11-03T14:06:48.062Z,55.66
2022-11-03T14:09:15.861Z,55.57
2022-11-03T14:12:01.224Z,56.18
2022-11-03T14:14:29.093Z,56.94
2022-11-03T14:16:58.366Z,56.69
2022-11-03T14:19:34.474Z,56.66
2022-11-03T14:22:06.004Z,56.15
2022-11-03T14:24:34.411Z,56.58
2022-11-03T14:27:02.275Z,56.22
2022-11-03T14:29:30.074Z,55.93
2022-11-03T14:31:59.690Z,56.83
2022-11-03T14:34:27.643Z,56.28
2022-11-03T14:36:55.673Z,56.75
2022-11-03T14:39:23.589Z,57.25
2022-11-03T14:42:06.774Z,57.71
2022-11-03T14:44:35.796Z,57.13
2022-11-03T14:47:06.961Z,57.48
2022-11-03T14:49:35.956Z,56.91
2022-11-03T14:52:05.314Z,56.04
2022-11-03T14:54:33.233Z,55.88
2022-11-03T14:57:01.902Z,57.03
2022-11-03T14:59:30.241Z,56.79
2022-11-03T15:01:58.869Z,56.34
2022-11-03T15:04:28.305Z,56.58
2022-11-03T15:06:56.191Z,57.39
2022-11-03T15:09:24.161Z,56.92
2022-11-03T15:11:51.993Z,57.20
2022-11-03T15:14:19.886Z,58.17
2022-11-03T15:16:48.087Z,57.64
2022-11-03T15:19:16.042Z,57.95
2022-11-03T15:21:45.222Z,58.21
2022-11-03T15:27:01.496Z,58.70
2022-11-03T15:29:29.352Z,58.71
2022-11-03T15:31:57.186Z,58.42
2022-11-03T15:34:25.100Z,58.37
2022-11-03T15:36:54.301Z,58.50
2022-11-03T15:39:22.185Z,59.11
2022-11-03T15:41:50.006Z,58.78
2022-11-03T15:44:17.851Z,58.65
2022-11-03T15:46:45.685Z,59.05
2022-11-03T15:49:13.535Z,59.38
2022-11-03T15:51:41.364Z,59.32
2022-11-03T15:54:10.611Z,59.66
2022-11-03T15:56:38.468Z,59.44
2022-11-03T15:59:06.313Z,60.10
2022-11-03T16:01:35.684Z,60.41
2022-11-03T16:04:03.713Z,60.14
2022-11-03T16:07:06.700Z,59.81
2022-11-03T16:09:20.836Z,59.84
2022-11-03T16:11:48.684Z,59.25
2022-11-03T16:14:16.586Z,59.49
2022-11-03T16:16:44.434Z,59.85
2022-11-03T16:19:12.307Z,59.55
2022-11-03T16:21:40.142Z,59.30
2022-11-03T16:24:08.853Z,59.13
2022-11-03T16:26:38.064Z,59.29
2022-11-03T16:29:05.874Z,59.71
2022-11-03T16:31:33.705Z,59.86
2022-11-03T16:34:01.581Z,60.14
2022-11-03T16:36:29.794Z,60.81
2022-11-03T16:38:57.657Z,60.32
2022-11-03T16:41:26.122Z,60.26
2022-11-03T16:43:55.401Z,60.54
2022-11-03T16:46:23.231Z,60.07
2022-11-03T16:48:51.248Z,60.71
2022-11-03T16:51:19.793Z,60.15
2022-11-03T16:53:47.641Z,60.33
2022-11-03T16:56:15.930Z,60.86
2022-11-03T16:58:43.766Z,60.89
2022-11-03T17:01:13.180Z,60.55
2022-11-03T17:03:41.093Z,60.80
2022-11-03T17:06:09.028Z,61.61
2022-11-03T17:08:52.481Z,61.47
2022-11-03T17:11:36.059Z,61.04
2022-11-03T17:14:06.031Z,60.82
2022-11-03T17:16:35.711Z,60.83
2022-11-03T17:19:03.855Z,60.55
2022-11-03T17:21:33.548Z,60.90
2022-11-03T17:24:01.408Z,60.85
2022-11-03T17:26:38.907Z,60.73
2022-11-03T17:29:15.944Z,60.67
2022-11-03T17:31:45.183Z,59.81
2022-11-03T17:34:13.295Z,60.14
2022-11-03T17:36:41.845Z,59.67
2022-11-03T17:39:13.952Z,59.40
2022-11-03T17:41:41.819Z,59.99
2022-11-03T17:44:12.022Z,59.43
2022-11-03T17:46:39.888Z,58.53
2022-11-03T17:49:09.085Z,59.11
2022-11-03T17:51:41.823Z,58.25
2022-11-03T17:54:16.841Z,58.38
2022-11-03T17:56:45.070Z,58.51
2022-11-03T17:59:16.596Z,58.11
2022-11-03T18:01:45.394Z,57.98
2022-11-03T18:04:16.355Z,57.80
2022-11-03T18:06:45.448Z,57.56
2022-11-03T18:09:13.349Z,57.55
2022-11-03T18:12:00.610Z,57.74
2022-11-03T18:14:30.008Z,57.00
2022-11-03T18:16:59.027Z,57.17
2022-11-03T18:19:28.509Z,57.28
2022-11-03T18:21:59.009Z,57.35
2022-11-03T18:24:28.568Z,57.30
2022-11-03T18:26:56.529Z,57.78
2022-11-03T18:29:24.388Z,57.73
2022-11-03T18:31:52.332Z,57.75
2022-11-03T18:34:23.478Z,57.89
2022-11-03T18:36:53.422Z,56.29
2022-11-03T18:39:25.442Z,57.08
2022-11-03T18:41:53.961Z,56.93
2022-11-03T18:44:24.040Z,56.79
2022-11-03T18:46:54.488Z,57.13
2022-11-03T18:49:23.093Z,57.10
2022-11-03T18:52:02.067Z,57.01
2022-11-03T18:54:32.214Z,57.64
2022-11-03T18:57:00.843Z,57.48
2022-11-03T18:59:31.991Z,57.00
2022-11-03T19:02:00.150Z,56.99
2022-11-03T19:04:28.181Z,57.16
2022-11-03T19:06:58.481Z,57.82
2022-11-03T19:09:27.696Z,57.82
2022-11-03T19:11:58.274Z,57.62
2022-11-03T19:14:28.916Z,57.71
2022-11-03T19:19:45.410Z,57.81
2022-11-03T19:22:16.030Z,58.08
2022-11-03T19:24:44.235Z,58.11
2022-11-03T19:27:17.282Z,57.63
2022-11-03T19:29:47.534Z,57.63
2022-11-03T19:32:20.580Z,58.01
2022-11-03T19:34:52.396Z,58.08
2022-11-03T19:37:21.713Z,57.86
2022-11-03T19:39:49.537Z,58.38
2022-11-03T19:42:32.987Z,59.00
2022-11-03T19:45:02.447Z,59.28
2022-11-03T19:47:34.714Z,58.87
2022-11-03T19:50:04.954Z,59.06
2022-11-03T19:52:35.436Z,59.56
2022-11-03T19:55:06.576Z,59.54
2022-11-03T19:57:34.447Z,59.75
2022-11-03T20:00:03.056Z,60.17
2022-11-03T20:02:35.598Z,60.57
2022-11-03T20:05:03.581Z,59.56
2022-11-03T20:07:32.081Z,60.96
2022-11-03T20:10:02.735Z,60.81
2022-11-03T20:12:31.734Z,61.08
2022-11-03T20:14:59.695Z,61.09
2022-11-03T20:17:27.526Z,61.03
2022-11-03T20:19:55.399Z,61.04
2022-11-03T20:22:30.134Z,61.36
2022-11-03T20:25:02.942Z,61.04
2022-11-03T20:27:33.521Z,60.54
2022-11-03T20:30:01.401Z,61.27
2022-11-03T20:32:29.368Z,61.14
2022-11-03T20:34:57.208Z,61.26
2022-11-03T20:37:25.047Z,61.65
2022-11-03T20:39:53.439Z,62.03
2022-11-03T20:42:24.496Z,61.30
2022-11-03T20:44:55.034Z,61.43
2022-11-03T20:47:23.050Z,61.06
2022-11-03T20:49:50.897Z,61.15
2022-11-03T20:52:18.767Z,62.11
2022-11-03T20:54:46.603Z,62.78
2022-11-03T20:57:14.975Z,62.73
2022-11-03T20:59:42.916Z,63.81
2022-11-03T21:02:14.059Z,64.03
2022-11-03T21:04:43.114Z,64.00
2022-11-03T21:07:13.620Z,64.18
2022-11-03T21:09:41.834Z,63.63
2022-11-03T21:12:13.123Z,63.72
2022-11-03T21:15:04.018Z,62.98
2022-11-03T21:17:50.636Z,63.47
2022-11-03T21:20:18.574Z,63.96
2022-11-03T21:22:52.545Z,64.73
2022-11-03T21:25:23.195Z,64.41
2022-11-03T21:27:51.799Z,63.69
2022-11-03T21:30:20.061Z,64.15
2022-11-03T21:32:49.462Z,64.24
2022-11-03T21:35:19.354Z,64.63
2022-11-03T21:37:47.634Z,64.51
2022-11-03T21:40:15.765Z,65.44
2022-11-03T21:43:00.801Z,65.25
2022-11-03T21:45:28.907Z,66.30
2022-11-03T21:48:15.692Z,65.71
2022-11-03T21:50:44.818Z,65.85
2022-11-03T21:53:13.180Z,65.68
2022-11-03T21:55:41.581Z,65.75
2022-11-03T21:58:10.058Z,65.43
2022-11-03T22:00:37.900Z,65.19
2022-11-03T22:03:07.456Z,66.46
2022-11-03T22:05:35.502Z,65.59
2022-11-03T22:08:03.325Z,65.67
2022-11-03T22:10:31.223Z,66.30
2022-11-03T22:12:59.083Z,65.50
2022-11-03T22:15:44.517Z,65.55
2022-11-03T22:18:13.847Z,65.86
2022-11-03T22:20:59.397Z,66.60
2022-11-03T22:23:44.936Z,66.29
2022-11-03T22:26:33.415Z,66.68
2022-11-03T22:29:18.708Z,66.06
2022-11-03T22:31:46.620Z,66.05
2022-11-03T22:34:32.932Z,66.46
2022-11-03T22:37:00.845Z,65.83
2022-11-03T22:39:46.122Z,67.69
2022-11-03T22:42:30.880Z,67.60
2022-11-03T22:45:16.338Z,67.23
2022-11-03T22:47:44.202Z,66.74
2022-11-03T22:50:13.440Z,68.28
2022-11-03T22:52:41.311Z,68.10
2022-11-03T22:55:08.248Z,68.60
2022-11-03T22:57:36.058Z,67.94
2022-11-03T23:00:05.675Z,67.30
2022-11-03T23:02:33.601Z,68.03
2022-11-03T23:05:01.535Z,68.08
2022-11-03T23:07:33.012Z,67.55
2022-11-03T23:10:04.871Z,68.15
2022-11-03T23:12:33.322Z,68.47
2022-11-03T23:15:18.894Z,67.80
2022-11-03T23:18:04.280Z,68.70
2022-11-03T23:20:48.635Z,67.71
2022-11-03T23:23:31.866Z,68.84
2022-11-03T23:25:59.976Z,68.37
2022-11-03T23:28:27.821Z,68.05
2022-11-03T23:30:56.129Z,68.39
2022-11-03T23:33:24.328Z,69.60
2022-11-03T23:35:52.260Z,69.52
2022-11-03T23:38:21.726Z,69.52
2022-11-03T23:40:49.563Z,68.96
2022-11-03T23:43:17.838Z,69.17
2022-11-03T23:46:03.500Z,68.95
2022-11-03T23:48:46.693Z,69.08
2022-11-03T23:51:15.257Z,69.33
2022-11-03T23:53:45.328Z,69.67
2022-11-03T23:56:32.081Z,70.09
2022-11-03T23:59:00.539Z,70.89
